sensor_id;sensor_type;location;lat;lon;timestamp;temperature;humidity
14786;DHT22;7484;49.906;9.058;2023-04-29T00:00:43;13.40;99.90
14786;DHT22;7484;49.906;9.058;2023-04-29T00:03:10;13.40;99.90
14786;DHT22;7484;49.906;9.058;2023-04-29T00:05:37;13.30;99.90
14786;DHT22;7484;49.906;9.058;2023-04-29T00:08:04;13.30;99.90
14786;DHT22;7484;49.906;9.058;2023-04-29T00:10:30;13.20;99.90
14786;DHT22;7484;49.906;9.058;2023-04-29T00:12:57;13.10;99.90
14786;DHT22;7484;49.906;9.058;2023-04-29T00:15:25;13.20;99.90
14786;DHT22;7484;49.906;9.058;2023-04-29T00:17:52;13.10;99.90
14786;DHT22;7484;49.906;9.058;2023-04-29T00:20:19;13.10;99.90
14786;DHT22;7484;49.906;9.058;2023-04-29T00:22:46;13.00;99.90
14786;DHT22;7484;49.906;9.058;2023-04-29T00:25:14;13.10;99.90
14786;DHT22;7484;49.906;9.058;2023-04-29T00:27:40;13.20;99.90
14786;DHT22;7484;49.906;9.058;2023-04-29T00:30:08;13.20;99.90
14786;DHT22;7484;49.906;9.058;2023-04-29T00:32:36;13.10;99.90
14786;DHT22;7484;49.906;9.058;2023-04-29T00:35:03;13.00;99.90
14786;DHT22;7484;49.906;9.058;2023-04-29T00:37:30;12.90;99.90
14786;DHT22;7484;49.906;9.058;2023-04-29T00:39:57;12.70;99.90
14786;DHT22;7484;49.906;9.058;2023-04-29T00:42:24;12.60;99.90
14786;DHT22;7484;49.906;9.058;2023-04-29T00:44:51;12.60;99.90
14786;DHT22;7484;49.906;9.058;2023-04-29T00:47:18;12.70;99.90
14786;DHT22;7484;49.906;9.058;2023-04-29T00:49:46;12.70;99.90
14786;DHT22;7484;49.906;9.058;2023-04-29T00:52:13;12.70;99.90
14786;DHT22;7484;49.906;9.058;2023-04-29T00:54:40;12.60;99.90
14786;DHT22;7484;49.906;9.058;2023-04-29T00:57:07;12.50;99.90
14786;DHT22;7484;49.906;9.058;2023-04-29T00:59:35;12.50;99.90
14786;DHT22;7484;49.906;9.058;2023-04-29T01:02:02;12.50;99.90
14786;DHT22;7484;49.906;9.058;2023-04-29T01:04:30;12.60;99.90
14786;DHT22;7484;49.906;9.058;2023-04-29T01:07:05;12.60;99.90
14786;DHT22;7484;49.906;9.058;2023-04-29T01:09:52;12.50;99.90
14786;DHT22;7484;49.906;9.058;2023-04-29T01:12:24;12.40;99.90
14786;DHT22;7484;49.906;9.058;2023-04-29T01:15:03;12.30;99.90
14786;DHT22;7484;49.906;9.058;2023-04-29T01:17:36;12.20;99.90
14786;DHT22;7484;49.906;9.058;2023-04-29T01:20:06;12.20;99.90
14786;DHT22;7484;49.906;9.058;2023-04-29T01:22:36;12.10;99.90
14786;DHT22;7484;49.906;9.058;2023-04-29T01:25:06;12.10;99.90
14786;DHT22;7484;49.906;9.058;2023-04-29T01:27:51;12.10;99.90
14786;DHT22;7484;49.906;9.058;2023-04-29T01:30:27;12.10;99.90
14786;DHT22;7484;49.906;9.058;2023-04-29T01:33:01;12.10;99.90
14786;DHT22;7484;49.906;9.058;2023-04-29T01:35:39;12.10;99.90
14786;DHT22;7484;49.906;9.058;2023-04-29T01:38:16;12.10;99.90
14786;DHT22;7484;49.906;9.058;2023-04-29T01:40:55;12.10;99.90
14786;DHT22;7484;49.906;9.058;2023-04-29T01:43:29;12.10;99.90
14786;DHT22;7484;49.906;9.058;2023-04-29T01:46:02;12.20;99.90
14786;DHT22;7484;49.906;9.058;2023-04-29T01:48:30;12.20;99.90
14786;DHT22;7484;49.906;9.058;2023-04-29T01:50:57;12.30;99.90
14786;DHT22;7484;49.906;9.058;2023-04-29T01:53:24;12.30;99.90
14786;DHT22;7484;49.906;9.058;2023-04-29T01:55:53;12.40;99.90
14786;DHT22;7484;49.906;9.058;2023-04-29T01:58:24;12.30;99.90
14786;DHT22;7484;49.906;9.058;2023-04-29T02:01:03;12.20;99.90
14786;DHT22;7484;49.906;9.058;2023-04-29T02:03:32;12.20;99.90
14786;DHT22;7484;49.906;9.058;2023-04-29T02:06:00;12.20;99.90
14786;DHT22;7484;49.906;9.058;2023-04-29T02:08:27;12.20;99.90
14786;DHT22;7484;49.906;9.058;2023-04-29T02:10:58;12.20;99.90
14786;DHT22;7484;49.906;9.058;2023-04-29T02:13:42;12.20;99.90
14786;DHT22;7484;49.906;9.058;2023-04-29T02:16:12;12.30;99.90
14786;DHT22;7484;49.906;9.058;2023-04-29T02:18:44;12.30;99.90
14786;DHT22;7484;49.906;9.058;2023-04-29T02:21:10;12.30;99.90
14786;DHT22;7484;49.906;9.058;2023-04-29T02:23:37;12.50;99.90
14786;DHT22;7484;49.906;9.058;2023-04-29T02:26:05;12.70;99.90
14786;DHT22;7484;49.906;9.058;2023-04-29T02:28:34;12.70;99.90
14786;DHT22;7484;49.906;9.058;2023-04-29T02:31:02;12.70;99.90
14786;DHT22;7484;49.906;9.058;2023-04-29T02:33:29;12.70;99.90
14786;DHT22;7484;49.906;9.058;2023-04-29T02:35:56;12.70;99.90
14786;DHT22;7484;49.906;9.058;2023-04-29T02:38:24;12.80;99.90
14786;DHT22;7484;49.906;9.058;2023-04-29T02:40:50;12.80;99.90
14786;DHT22;7484;49.906;9.058;2023-04-29T02:43:18;12.80;99.90
14786;DHT22;7484;49.906;9.058;2023-04-29T02:45:45;12.90;99.90
14786;DHT22;7484;49.906;9.058;2023-04-29T02:48:12;12.90;99.90
14786;DHT22;7484;49.906;9.058;2023-04-29T02:50:39;13.00;99.90
14786;DHT22;7484;49.906;9.058;2023-04-29T02:53:06;13.00;99.90
14786;DHT22;7484;49.906;9.058;2023-04-29T02:55:32;12.90;99.90
14786;DHT22;7484;49.906;9.058;2023-04-29T02:58:05;12.90;99.90
14786;DHT22;7484;49.906;9.058;2023-04-29T03:00:33;12.80;99.90
14786;DHT22;7484;49.906;9.058;2023-04-29T03:03:00;12.90;99.90
14786;DHT22;7484;49.906;9.058;2023-04-29T03:05:27;13.00;99.90
14786;DHT22;7484;49.906;9.058;2023-04-29T03:07:53;13.00;99.90
14786;DHT22;7484;49.906;9.058;2023-04-29T03:10:21;13.10;99.90
14786;DHT22;7484;49.906;9.058;2023-04-29T03:12:47;13.20;99.90
14786;DHT22;7484;49.906;9.058;2023-04-29T03:15:14;13.30;99.90
14786;DHT22;7484;49.906;9.058;2023-04-29T03:17:43;13.30;99.90
14786;DHT22;7484;49.906;9.058;2023-04-29T03:20:12;13.30;99.90
14786;DHT22;7484;49.906;9.058;2023-04-29T03:22:38;13.20;99.90
14786;DHT22;7484;49.906;9.058;2023-04-29T03:25:06;13.20;99.90
14786;DHT22;7484;49.906;9.058;2023-04-29T03:27:35;13.30;99.90
14786;DHT22;7484;49.906;9.058;2023-04-29T03:30:02;13.30;99.90
14786;DHT22;7484;49.906;9.058;2023-04-29T03:32:29;13.40;99.90
14786;DHT22;7484;49.906;9.058;2023-04-29T03:34:58;13.30;99.90
14786;DHT22;7484;49.906;9.058;2023-04-29T03:37:47;13.20;99.90
14786;DHT22;7484;49.906;9.058;2023-04-29T03:40:20;13.20;99.90
14786;DHT22;7484;49.906;9.058;2023-04-29T03:42:47;13.20;99.90
14786;DHT22;7484;49.906;9.058;2023-04-29T03:45:14;13.30;99.90
14786;DHT22;7484;49.906;9.058;2023-04-29T03:47:42;13.20;99.90
14786;DHT22;7484;49.906;9.058;2023-04-29T03:50:11;13.20;99.90
14786;DHT22;7484;49.906;9.058;2023-04-29T03:52:38;13.20;99.90
14786;DHT22;7484;49.906;9.058;2023-04-29T03:55:10;13.20;99.90
14786;DHT22;7484;49.906;9.058;2023-04-29T03:57:37;13.20;99.90
14786;DHT22;7484;49.906;9.058;2023-04-29T04:00:05;13.10;99.90
14786;DHT22;7484;49.906;9.058;2023-04-29T04:02:39;13.10;99.90
14786;DHT22;7484;49.906;9.058;2023-04-29T04:05:07;13.00;99.90
14786;DHT22;7484;49.906;9.058;2023-04-29T04:07:36;13.00;99.90
14786;DHT22;7484;49.906;9.058;2023-04-29T04:10:35;13.40;99.90
14786;DHT22;7484;49.906;9.058;2023-04-29T04:13:08;13.10;99.90
14786;DHT22;7484;49.906;9.058;2023-04-29T04:15:35;13.20;99.90
14786;DHT22;7484;49.906;9.058;2023-04-29T04:18:02;13.30;99.90
14786;DHT22;7484;49.906;9.058;2023-04-29T04:20:29;13.20;99.90
14786;DHT22;7484;49.906;9.058;2023-04-29T04:22:57;13.30;99.90
14786;DHT22;7484;49.906;9.058;2023-04-29T04:25:27;13.20;99.90
14786;DHT22;7484;49.906;9.058;2023-04-29T04:28:02;13.20;99.90
14786;DHT22;7484;49.906;9.058;2023-04-29T04:30:56;13.20;99.90
14786;DHT22;7484;49.906;9.058;2023-04-29T04:33:24;13.30;99.90
14786;DHT22;7484;49.906;9.058;2023-04-29T04:35:51;13.30;99.90
14786;DHT22;7484;49.906;9.058;2023-04-29T04:38:19;13.30;99.90
14786;DHT22;7484;49.906;9.058;2023-04-29T04:40:47;13.30;99.90
14786;DHT22;7484;49.906;9.058;2023-04-29T04:43:43;13.30;99.90
14786;DHT22;7484;49.906;9.058;2023-04-29T04:46:20;13.30;99.90
14786;DHT22;7484;49.906;9.058;2023-04-29T04:48:58;13.30;99.90
14786;DHT22;7484;49.906;9.058;2023-04-29T04:51:26;13.20;99.90
14786;DHT22;7484;49.906;9.058;2023-04-29T04:53:54;13.20;99.90
14786;DHT22;7484;49.906;9.058;2023-04-29T04:56:23;13.20;99.90
14786;DHT22;7484;49.906;9.058;2023-04-29T04:58:50;13.30;99.90
14786;DHT22;7484;49.906;9.058;2023-04-29T05:01:16;13.30;99.90
14786;DHT22;7484;49.906;9.058;2023-04-29T05:03:43;13.30;99.90
14786;DHT22;7484;49.906;9.058;2023-04-29T05:06:10;13.30;99.90
14786;DHT22;7484;49.906;9.058;2023-04-29T05:08:39;13.30;99.90
14786;DHT22;7484;49.906;9.058;2023-04-29T05:11:15;13.30;99.90
14786;DHT22;7484;49.906;9.058;2023-04-29T05:13:46;13.30;99.90
14786;DHT22;7484;49.906;9.058;2023-04-29T05:16:13;13.30;99.90
14786;DHT22;7484;49.906;9.058;2023-04-29T05:18:44;13.30;99.90
14786;DHT22;7484;49.906;9.058;2023-04-29T05:21:11;13.20;99.90
14786;DHT22;7484;49.906;9.058;2023-04-29T05:23:38;13.30;99.90
14786;DHT22;7484;49.906;9.058;2023-04-29T05:26:05;13.20;99.90
14786;DHT22;7484;49.906;9.058;2023-04-29T05:28:33;13.30;99.90
14786;DHT22;7484;49.906;9.058;2023-04-29T05:31:00;13.40;99.90
14786;DHT22;7484;49.906;9.058;2023-04-29T05:33:27;13.40;99.90
14786;DHT22;7484;49.906;9.058;2023-04-29T05:35:53;13.40;99.90
14786;DHT22;7484;49.906;9.058;2023-04-29T05:38:20;13.30;99.90
14786;DHT22;7484;49.906;9.058;2023-04-29T05:41:00;13.40;99.90
14786;DHT22;7484;49.906;9.058;2023-04-29T05:43:47;13.40;99.90
14786;DHT22;7484;49.906;9.058;2023-04-29T05:46:14;13.40;99.90
14786;DHT22;7484;49.906;9.058;2023-04-29T05:48:41;13.40;99.90
14786;DHT22;7484;49.906;9.058;2023-04-29T05:51:11;13.40;99.90
14786;DHT22;7484;49.906;9.058;2023-04-29T05:53:38;13.30;99.90
14786;DHT22;7484;49.906;9.058;2023-04-29T05:56:05;13.40;99.90
14786;DHT22;7484;49.906;9.058;2023-04-29T05:58:33;13.40;99.90
14786;DHT22;7484;49.906;9.058;2023-04-29T06:01:01;13.40;99.90
14786;DHT22;7484;49.906;9.058;2023-04-29T06:03:29;13.40;99.90
14786;DHT22;7484;49.906;9.058;2023-04-29T06:06:16;13.40;99.90
14786;DHT22;7484;49.906;9.058;2023-04-29T06:08:59;13.50;99.90
14786;DHT22;7484;49.906;9.058;2023-04-29T06:11:28;13.50;99.90
14786;DHT22;7484;49.906;9.058;2023-04-29T06:13:56;13.90;99.90
14786;DHT22;7484;49.906;9.058;2023-04-29T06:16:24;13.60;99.90
14786;DHT22;7484;49.906;9.058;2023-04-29T06:18:52;13.60;99.90
14786;DHT22;7484;49.906;9.058;2023-04-29T06:21:19;13.60;99.90
14786;DHT22;7484;49.906;9.058;2023-04-29T06:23:46;13.70;99.90
14786;DHT22;7484;49.906;9.058;2023-04-29T06:26:16;13.70;99.90
14786;DHT22;7484;49.906;9.058;2023-04-29T06:28:44;13.80;99.90
14786;DHT22;7484;49.906;9.058;2023-04-29T06:31:12;13.90;99.90
14786;DHT22;7484;49.906;9.058;2023-04-29T06:33:42;13.90;99.90
14786;DHT22;7484;49.906;9.058;2023-04-29T06:36:11;14.00;99.90
14786;DHT22;7484;49.906;9.058;2023-04-29T06:39:01;14.00;99.90
14786;DHT22;7484;49.906;9.058;2023-04-29T06:41:47;14.00;99.90
14786;DHT22;7484;49.906;9.058;2023-04-29T06:44:34;14.00;99.90
14786;DHT22;7484;49.906;9.058;2023-04-29T06:47:19;13.90;99.90
14786;DHT22;7484;49.906;9.058;2023-04-29T06:49:55;13.90;99.90
14786;DHT22;7484;49.906;9.058;2023-04-29T06:52:23;13.80;99.90
14786;DHT22;7484;49.906;9.058;2023-04-29T06:54:51;13.90;99.90
14786;DHT22;7484;49.906;9.058;2023-04-29T06:57:19;13.90;99.90
14786;DHT22;7484;49.906;9.058;2023-04-29T06:59:47;13.80;99.90
14786;DHT22;7484;49.906;9.058;2023-04-29T07:02:15;13.80;99.90
14786;DHT22;7484;49.906;9.058;2023-04-29T07:04:46;13.80;99.90
14786;DHT22;7484;49.906;9.058;2023-04-29T07:07:18;13.70;99.90
14786;DHT22;7484;49.906;9.058;2023-04-29T07:09:48;13.70;99.90
14786;DHT22;7484;49.906;9.058;2023-04-29T07:12:17;13.70;99.90
14786;DHT22;7484;49.906;9.058;2023-04-29T07:14:46;13.60;99.90
14786;DHT22;7484;49.906;9.058;2023-04-29T07:17:14;13.50;99.90
14786;DHT22;7484;49.906;9.058;2023-04-29T07:19:42;13.60;99.90
14786;DHT22;7484;49.906;9.058;2023-04-29T07:22:10;13.60;99.90
14786;DHT22;7484;49.906;9.058;2023-04-29T07:24:40;13.70;99.90
14786;DHT22;7484;49.906;9.058;2023-04-29T07:27:08;13.70;99.90
14786;DHT22;7484;49.906;9.058;2023-04-29T07:29:38;13.80;99.90
14786;DHT22;7484;49.906;9.058;2023-04-29T07:32:07;13.80;99.90
14786;DHT22;7484;49.906;9.058;2023-04-29T07:34:36;13.80;99.90
14786;DHT22;7484;49.906;9.058;2023-04-29T07:37:05;13.90;99.90
14786;DHT22;7484;49.906;9.058;2023-04-29T07:39:34;13.90;99.90
14786;DHT22;7484;49.906;9.058;2023-04-29T07:42:04;14.00;99.90
14786;DHT22;7484;49.906;9.058;2023-04-29T07:44:31;13.90;99.90
14786;DHT22;7484;49.906;9.058;2023-04-29T07:46:58;14.00;99.90
14786;DHT22;7484;49.906;9.058;2023-04-29T07:49:25;13.90;99.90
14786;DHT22;7484;49.906;9.058;2023-04-29T07:51:51;13.90;99.90
14786;DHT22;7484;49.906;9.058;2023-04-29T07:54:19;13.90;99.90
14786;DHT22;7484;49.906;9.058;2023-04-29T07:56:48;13.80;99.90
14786;DHT22;7484;49.906;9.058;2023-04-29T07:59:19;13.80;99.90
14786;DHT22;7484;49.906;9.058;2023-04-29T08:01:47;13.80;99.90
14786;DHT22;7484;49.906;9.058;2023-04-29T08:04:16;13.90;99.90
14786;DHT22;7484;49.906;9.058;2023-04-29T08:06:54;13.90;99.90
14786;DHT22;7484;49.906;9.058;2023-04-29T08:09:23;13.90;99.90
14786;DHT22;7484;49.906;9.058;2023-04-29T08:11:53;13.90;99.90
14786;DHT22;7484;49.906;9.058;2023-04-29T08:14:23;14.00;99.90
14786;DHT22;7484;49.906;9.058;2023-04-29T08:16:54;14.00;99.90
14786;DHT22;7484;49.906;9.058;2023-04-29T08:19:22;14.00;99.90
14786;DHT22;7484;49.906;9.058;2023-04-29T08:21:52;14.00;99.90
14786;DHT22;7484;49.906;9.058;2023-04-29T08:24:20;14.10;99.90
14786;DHT22;7484;49.906;9.058;2023-04-29T08:26:48;14.10;99.90
14786;DHT22;7484;49.906;9.058;2023-04-29T08:29:16;14.10;99.90
14786;DHT22;7484;49.906;9.058;2023-04-29T08:31:44;14.20;99.90
14786;DHT22;7484;49.906;9.058;2023-04-29T08:34:14;14.30;99.90
14786;DHT22;7484;49.906;9.058;2023-04-29T08:36:43;14.30;99.90
14786;DHT22;7484;49.906;9.058;2023-04-29T08:39:16;14.40;99.90
14786;DHT22;7484;49.906;9.058;2023-04-29T08:41:43;14.50;99.90
14786;DHT22;7484;49.906;9.058;2023-04-29T08:44:16;14.50;99.90
14786;DHT22;7484;49.906;9.058;2023-04-29T08:46:45;14.40;99.90
14786;DHT22;7484;49.906;9.058;2023-04-29T08:49:16;14.30;99.90
14786;DHT22;7484;49.906;9.058;2023-04-29T08:51:43;14.30;99.90
14786;DHT22;7484;49.906;9.058;2023-04-29T08:54:14;14.30;99.90
14786;DHT22;7484;49.906;9.058;2023-04-29T08:56:44;14.30;99.90
14786;DHT22;7484;49.906;9.058;2023-04-29T08:59:13;14.30;99.90
14786;DHT22;7484;49.906;9.058;2023-04-29T09:01:42;14.30;99.90
14786;DHT22;7484;49.906;9.058;2023-04-29T09:04:23;14.20;99.90
14786;DHT22;7484;49.906;9.058;2023-04-29T09:06:55;14.30;99.90
14786;DHT22;7484;49.906;9.058;2023-04-29T09:09:23;14.20;99.90
14786;DHT22;7484;49.906;9.058;2023-04-29T09:11:51;14.20;99.90
14786;DHT22;7484;49.906;9.058;2023-04-29T09:14:21;14.00;99.90
14786;DHT22;7484;49.906;9.058;2023-04-29T09:16:48;14.00;99.90
14786;DHT22;7484;49.906;9.058;2023-04-29T09:19:30;14.00;99.90
14786;DHT22;7484;49.906;9.058;2023-04-29T09:21:58;14.00;99.90
14786;DHT22;7484;49.906;9.058;2023-04-29T09:24:29;14.00;99.90
14786;DHT22;7484;49.906;9.058;2023-04-29T09:26:59;14.00;99.90
14786;DHT22;7484;49.906;9.058;2023-04-29T09:29:29;14.10;99.90
14786;DHT22;7484;49.906;9.058;2023-04-29T09:31:59;14.20;99.90
14786;DHT22;7484;49.906;9.058;2023-04-29T09:34:31;14.20;99.90
14786;DHT22;7484;49.906;9.058;2023-04-29T09:37:00;14.20;99.90
14786;DHT22;7484;49.906;9.058;2023-04-29T09:39:26;14.20;99.90
14786;DHT22;7484;49.906;9.058;2023-04-29T09:42:03;14.30;99.90
14786;DHT22;7484;49.906;9.058;2023-04-29T09:44:32;14.30;99.90
14786;DHT22;7484;49.906;9.058;2023-04-29T09:47:01;14.50;99.90
14786;DHT22;7484;49.906;9.058;2023-04-29T09:49:31;14.50;99.90
14786;DHT22;7484;49.906;9.058;2023-04-29T09:52:02;14.60;99.90
14786;DHT22;7484;49.906;9.058;2023-04-29T09:54:30;14.70;99.90
14786;DHT22;7484;49.906;9.058;2023-04-29T09:56:59;14.80;99.90
14786;DHT22;7484;49.906;9.058;2023-04-29T09:59:27;14.80;99.90
14786;DHT22;7484;49.906;9.058;2023-04-29T10:01:55;14.80;99.90
14786;DHT22;7484;49.906;9.058;2023-04-29T10:04:25;14.90;99.90
14786;DHT22;7484;49.906;9.058;2023-04-29T10:06:55;15.00;99.90
14786;DHT22;7484;49.906;9.058;2023-04-29T10:09:22;15.10;99.90
14786;DHT22;7484;49.906;9.058;2023-04-29T10:11:51;15.10;99.90
14786;DHT22;7484;49.906;9.058;2023-04-29T10:14:18;15.20;99.90
14786;DHT22;7484;49.906;9.058;2023-04-29T10:16:47;15.30;99.90
14786;DHT22;7484;49.906;9.058;2023-04-29T10:19:24;15.30;99.90
14786;DHT22;7484;49.906;9.058;2023-04-29T10:21:54;15.20;99.90
14786;DHT22;7484;49.906;9.058;2023-04-29T10:24:24;15.10;99.90
14786;DHT22;7484;49.906;9.058;2023-04-29T10:26:51;15.10;99.90
14786;DHT22;7484;49.906;9.058;2023-04-29T10:29:21;15.10;99.90
14786;DHT22;7484;49.906;9.058;2023-04-29T10:31:48;15.30;99.90
14786;DHT22;7484;49.906;9.058;2023-04-29T10:34:16;15.40;99.90
14786;DHT22;7484;49.906;9.058;2023-04-29T10:36:43;15.30;99.90
14786;DHT22;7484;49.906;9.058;2023-04-29T10:39:20;15.40;99.90
14786;DHT22;7484;49.906;9.058;2023-04-29T10:41:50;15.30;99.90
14786;DHT22;7484;49.906;9.058;2023-04-29T10:44:17;15.30;99.90
14786;DHT22;7484;49.906;9.058;2023-04-29T10:46:43;15.30;99.90
14786;DHT22;7484;49.906;9.058;2023-04-29T10:49:10;15.10;99.90
14786;DHT22;7484;49.906;9.058;2023-04-29T10:51:39;15.10;99.90
14786;DHT22;7484;49.906;9.058;2023-04-29T10:54:08;15.10;99.90
14786;DHT22;7484;49.906;9.058;2023-04-29T10:56:49;15.20;99.90
14786;DHT22;7484;49.906;9.058;2023-04-29T10:59:19;15.20;99.90
14786;DHT22;7484;49.906;9.058;2023-04-29T11:01:48;15.10;99.90
14786;DHT22;7484;49.906;9.058;2023-04-29T11:04:16;15.10;99.90
14786;DHT22;7484;49.906;9.058;2023-04-29T11:06:45;15.10;99.90
14786;DHT22;7484;49.906;9.058;2023-04-29T11:09:15;15.10;99.90
14786;DHT22;7484;49.906;9.058;2023-04-29T11:11:47;15.00;99.90
14786;DHT22;7484;49.906;9.058;2023-04-29T11:14:18;14.90;99.90
14786;DHT22;7484;49.906;9.058;2023-04-29T11:16:47;14.90;99.90
14786;DHT22;7484;49.906;9.058;2023-04-29T11:19:15;14.90;99.90
14786;DHT22;7484;49.906;9.058;2023-04-29T11:21:45;15.00;99.90
14786;DHT22;7484;49.906;9.058;2023-04-29T11:24:12;15.00;99.90
14786;DHT22;7484;49.906;9.058;2023-04-29T11:26:40;15.00;99.90
14786;DHT22;7484;49.906;9.058;2023-04-29T11:29:10;15.10;99.90
14786;DHT22;7484;49.906;9.058;2023-04-29T11:31:37;15.10;99.90
14786;DHT22;7484;49.906;9.058;2023-04-29T11:34:04;15.00;99.90
14786;DHT22;7484;49.906;9.058;2023-04-29T11:36:32;15.00;99.90
14786;DHT22;7484;49.906;9.058;2023-04-29T11:38:59;14.90;99.90
14786;DHT22;7484;49.906;9.058;2023-04-29T11:41:27;14.90;99.90
14786;DHT22;7484;49.906;9.058;2023-04-29T11:43:57;14.80;99.90
14786;DHT22;7484;49.906;9.058;2023-04-29T11:46:29;14.70;99.90
14786;DHT22;7484;49.906;9.058;2023-04-29T11:48:56;14.60;99.90
14786;DHT22;7484;49.906;9.058;2023-04-29T11:51:24;14.60;99.90
14786;DHT22;7484;49.906;9.058;2023-04-29T11:53:51;14.60;99.90
14786;DHT22;7484;49.906;9.058;2023-04-29T11:56:20;14.60;99.90
14786;DHT22;7484;49.906;9.058;2023-04-29T11:58:48;14.50;99.90
14786;DHT22;7484;49.906;9.058;2023-04-29T12:01:15;14.50;99.90
14786;DHT22;7484;49.906;9.058;2023-04-29T12:03:43;14.50;99.90
14786;DHT22;7484;49.906;9.058;2023-04-29T12:06:12;14.50;99.90
14786;DHT22;7484;49.906;9.058;2023-04-29T12:08:39;14.50;99.90
14786;DHT22;7484;49.906;9.058;2023-04-29T12:11:06;14.60;99.90
14786;DHT22;7484;49.906;9.058;2023-04-29T12:13:33;14.70;99.90
14786;DHT22;7484;49.906;9.058;2023-04-29T12:16:01;14.90;99.90
14786;DHT22;7484;49.906;9.058;2023-04-29T12:18:28;15.20;99.90
14786;DHT22;7484;49.906;9.058;2023-04-29T12:20:56;15.50;99.90
14786;DHT22;7484;49.906;9.058;2023-04-29T12:23:24;15.90;99.90
14786;DHT22;7484;49.906;9.058;2023-04-29T12:25:54;16.20;99.90
14786;DHT22;7484;49.906;9.058;2023-04-29T12:28:22;16.60;99.90
14786;DHT22;7484;49.906;9.058;2023-04-29T12:30:50;17.10;99.90
14786;DHT22;7484;49.906;9.058;2023-04-29T12:33:18;17.60;99.90
14786;DHT22;7484;49.906;9.058;2023-04-29T12:35:47;18.00;99.90
14786;DHT22;7484;49.906;9.058;2023-04-29T12:38:19;18.40;99.90
14786;DHT22;7484;49.906;9.058;2023-04-29T12:40:46;18.70;99.90
14786;DHT22;7484;49.906;9.058;2023-04-29T12:43:14;18.80;99.90
14786;DHT22;7484;49.906;9.058;2023-04-29T12:45:40;18.80;99.90
14786;DHT22;7484;49.906;9.058;2023-04-29T12:48:07;18.70;99.90
14786;DHT22;7484;49.906;9.058;2023-04-29T12:50:35;18.70;99.90
14786;DHT22;7484;49.906;9.058;2023-04-29T12:53:03;18.70;99.90
14786;DHT22;7484;49.906;9.058;2023-04-29T12:55:32;18.60;99.90
14786;DHT22;7484;49.906;9.058;2023-04-29T12:58:00;18.60;99.90
14786;DHT22;7484;49.906;9.058;2023-04-29T13:00:26;18.50;99.90
14786;DHT22;7484;49.906;9.058;2023-04-29T13:02:53;18.30;99.90
14786;DHT22;7484;49.906;9.058;2023-04-29T13:05:20;18.00;99.90
14786;DHT22;7484;49.906;9.058;2023-04-29T13:07:47;17.80;99.90
14786;DHT22;7484;49.906;9.058;2023-04-29T13:10:14;17.50;99.90
14786;DHT22;7484;49.906;9.058;2023-04-29T13:12:43;17.50;99.90
14786;DHT22;7484;49.906;9.058;2023-04-29T13:15:10;17.40;99.90
14786;DHT22;7484;49.906;9.058;2023-04-29T13:17:38;17.30;99.90
14786;DHT22;7484;49.906;9.058;2023-04-29T13:20:06;17.20;99.90
14786;DHT22;7484;49.906;9.058;2023-04-29T13:22:33;17.20;99.90
14786;DHT22;7484;49.906;9.058;2023-04-29T13:25:01;17.30;99.90
14786;DHT22;7484;49.906;9.058;2023-04-29T13:27:29;17.40;99.90
14786;DHT22;7484;49.906;9.058;2023-04-29T13:29:57;17.40;99.90
14786;DHT22;7484;49.906;9.058;2023-04-29T13:32:23;17.20;99.90
14786;DHT22;7484;49.906;9.058;2023-04-29T13:34:50;17.10;99.90
14786;DHT22;7484;49.906;9.058;2023-04-29T13:37:17;17.10;99.90
14786;DHT22;7484;49.906;9.058;2023-04-29T13:39:44;17.00;99.90
14786;DHT22;7484;49.906;9.058;2023-04-29T13:42:11;16.80;99.90
14786;DHT22;7484;49.906;9.058;2023-04-29T13:44:37;16.70;99.90
14786;DHT22;7484;49.906;9.058;2023-04-29T13:47:10;16.60;99.90
14786;DHT22;7484;49.906;9.058;2023-04-29T13:49:38;16.50;99.90
14786;DHT22;7484;49.906;9.058;2023-04-29T13:52:05;16.40;99.90
14786;DHT22;7484;49.906;9.058;2023-04-29T13:54:31;16.30;99.90
14786;DHT22;7484;49.906;9.058;2023-04-29T13:56:58;16.10;99.90
14786;DHT22;7484;49.906;9.058;2023-04-29T13:59:25;16.00;99.90
14786;DHT22;7484;49.906;9.058;2023-04-29T14:01:53;15.80;99.90
14786;DHT22;7484;49.906;9.058;2023-04-29T14:04:21;15.70;99.90
14786;DHT22;7484;49.906;9.058;2023-04-29T14:06:48;15.60;99.90
14786;DHT22;7484;49.906;9.058;2023-04-29T14:09:15;15.60;99.90
14786;DHT22;7484;49.906;9.058;2023-04-29T14:11:43;15.60;99.90
14786;DHT22;7484;49.906;9.058;2023-04-29T14:14:09;15.60;99.90
14786;DHT22;7484;49.906;9.058;2023-04-29T14:16:36;15.60;99.90
14786;DHT22;7484;49.906;9.058;2023-04-29T14:19:03;15.60;99.90
14786;DHT22;7484;49.906;9.058;2023-04-29T14:21:31;15.70;99.90
14786;DHT22;7484;49.906;9.058;2023-04-29T14:23:58;15.70;99.90
14786;DHT22;7484;49.906;9.058;2023-04-29T14:26:25;15.80;99.90
14786;DHT22;7484;49.906;9.058;2023-04-29T14:28:53;15.90;99.90
14786;DHT22;7484;49.906;9.058;2023-04-29T14:31:22;15.90;99.90
14786;DHT22;7484;49.906;9.058;2023-04-29T14:33:49;16.00;99.90
14786;DHT22;7484;49.906;9.058;2023-04-29T14:36:16;16.10;99.90
14786;DHT22;7484;49.906;9.058;2023-04-29T14:38:44;16.20;99.90
14786;DHT22;7484;49.906;9.058;2023-04-29T14:41:11;16.20;99.90
14786;DHT22;7484;49.906;9.058;2023-04-29T14:43:38;16.40;99.90
14786;DHT22;7484;49.906;9.058;2023-04-29T14:46:05;16.50;99.90
14786;DHT22;7484;49.906;9.058;2023-04-29T14:48:32;16.50;99.90
14786;DHT22;7484;49.906;9.058;2023-04-29T14:50:59;16.60;99.90
14786;DHT22;7484;49.906;9.058;2023-04-29T14:53:26;16.60;99.90
14786;DHT22;7484;49.906;9.058;2023-04-29T14:55:54;16.60;99.90
14786;DHT22;7484;49.906;9.058;2023-04-29T14:58:20;16.60;99.90
14786;DHT22;7484;49.906;9.058;2023-04-29T15:00:47;16.50;99.90
14786;DHT22;7484;49.906;9.058;2023-04-29T15:03:15;16.40;99.90
14786;DHT22;7484;49.906;9.058;2023-04-29T15:05:42;16.30;99.90
14786;DHT22;7484;49.906;9.058;2023-04-29T15:08:08;16.10;99.90
14786;DHT22;7484;49.906;9.058;2023-04-29T15:10:35;16.10;99.90
14786;DHT22;7484;49.906;9.058;2023-04-29T15:13:03;16.10;99.90
14786;DHT22;7484;49.906;9.058;2023-04-29T15:15:31;16.10;99.90
14786;DHT22;7484;49.906;9.058;2023-04-29T15:17:57;16.10;99.90
14786;DHT22;7484;49.906;9.058;2023-04-29T15:20:24;16.10;99.90
14786;DHT22;7484;49.906;9.058;2023-04-29T15:22:51;16.10;99.90
14786;DHT22;7484;49.906;9.058;2023-04-29T15:25:18;16.10;99.90
14786;DHT22;7484;49.906;9.058;2023-04-29T15:27:44;16.00;99.90
14786;DHT22;7484;49.906;9.058;2023-04-29T15:30:13;15.90;99.90
14786;DHT22;7484;49.906;9.058;2023-04-29T15:32:41;15.70;99.90
14786;DHT22;7484;49.906;9.058;2023-04-29T15:35:08;15.60;99.90
14786;DHT22;7484;49.906;9.058;2023-04-29T15:37:36;15.50;99.90
14786;DHT22;7484;49.906;9.058;2023-04-29T15:40:03;15.40;99.90
14786;DHT22;7484;49.906;9.058;2023-04-29T15:42:30;15.30;99.90
14786;DHT22;7484;49.906;9.058;2023-04-29T15:44:56;15.30;99.90
14786;DHT22;7484;49.906;9.058;2023-04-29T15:47:24;15.20;99.90
14786;DHT22;7484;49.906;9.058;2023-04-29T15:49:51;15.20;99.90
14786;DHT22;7484;49.906;9.058;2023-04-29T15:52:20;15.20;99.90
14786;DHT22;7484;49.906;9.058;2023-04-29T15:54:47;15.10;99.90
14786;DHT22;7484;49.906;9.058;2023-04-29T15:57:13;15.10;99.90